Flight Track Log - Related Links

Times and Time Zones

All times are in EDT time to prevent confusion due to time zone crossing. See the SWA2519 flight status page for this flight to view local times or setup timezone preferences in your user account.

Time Position Orientation Groundspeed Altitude Reporting Facility
EDT Latitude Longitude Course Direction KTS MPH feet Rate Location/Type
Fri 07:13:56 PM 37.7500 -122.2833 150° Southeast 197 227 2,600  Level Northern Cal TRACON
Fri 07:14:56 PM 37.7500 -122.3500 270° West 229 264 5,600 2,954 Climbing Northern Cal TRACON
Fri 07:16:06 PM 37.6803 -122.3739 195° South 231 266 9,000 3,000 Climbing Oakland Center
Fri 07:17:08 PM 37.6094 -122.3689 177° South 255 293 12,200 3,024 Climbing Oakland Center
Fri 07:18:09 PM 37.5300 -122.3594 175° South 278 320 15,200 3,024 Climbing Oakland Center
Fri 07:19:00 PM 37.2671 -122.3170 150° Southeast  Level FlightAware Approximate
Fri 07:19:11 PM 37.4411 -122.2828 146° Southeast 328 377 18,400  Level Oakland Center
Fri 07:20:12 PM 37.3575 -122.1931 140° Southeast 377 434 20,100 2,195 Climbing Oakland Center
Fri 07:21:14 PM 37.2686 -122.0975 139° Southeast 418 481 22,900 2,488 Climbing Oakland Center
Fri 07:22:15 PM 37.1761 -121.9986 140° Southeast 434 499 25,200 2,244 Climbing Oakland Center
Fri 07:23:17 PM 37.0797 -121.8958 140° Southeast 451 519 27,500 2,098 Climbing Oakland Center
Fri 07:24:18 PM 36.9806 -121.7922 140° Southeast 462 532 29,500 2,098 Climbing Oakland Center
Fri 07:25:20 PM 36.8808 -121.6869 140° Southeast 470 541 31,800 1,707 Climbing Oakland Center
Fri 07:26:21 PM 36.7814 -121.5831 140° Southeast 467 537 33,000 590 Climbing Oakland Center
Fri 07:27:22 PM 36.6628 -121.4583 140° Southeast 466 536 33,000  Level Oakland Center
Fri 07:28:24 PM 36.5633 -121.3550 140° Southeast 466 536 33,000  Level Oakland Center
Fri 07:29:25 PM 36.4653 -121.2508 139° Southeast 464 534 33,000  Level Oakland Center
Fri 07:30:27 PM 36.3653 -121.1497 141° Southeast 464 534 33,000  Level Oakland Center
Fri 07:31:28 PM 36.2622 -121.0431 140° Southeast 463 533 33,000  Level Oakland Center
Fri 07:32:30 PM 36.1650 -120.9436 140° Southeast 463 533 33,000  Level Oakland Center
Fri 07:33:31 PM 36.0647 -120.8433 141° Southeast 464 534 33,000  Level Oakland Center
Fri 07:34:33 PM 35.9644 -120.7417 141° Southeast 465 535 33,000  Level Oakland Center
Fri 07:35:34 PM 35.8642 -120.6403 141° Southeast 465 535 33,000  Level Oakland Center
Fri 07:36:36 PM 35.7650 -120.5372 140° Southeast 465 535 33,000  Level Oakland Center
Fri 07:37:37 PM 35.6442 -120.4167 141° Southeast 466 536 33,000  Level Oakland Center
Fri 07:38:39 PM 35.5425 -120.3158 141° Southeast 467 537 33,000  Level Oakland Center
Fri 07:39:40 PM 35.4428 -120.2136 140° Southeast 467 537 33,000  Level Oakland Center
Fri 07:40:32 PM 35.3628 -120.1344 141° Southeast 467 537 33,000 -632 Level Los Angeles Center
Fri 07:41:34 PM 35.2617 -120.0333 141° Southeast 466 536 31,800 -1,984 Descending Los Angeles Center
Fri 07:42:36 PM 35.1564 -119.9281 141° Southeast 483 556 28,900 -2,565 Descending Los Angeles Center
Fri 07:43:38 PM 35.0592 -119.8222 138° Southeast 470 541 26,500 -2,448 Descending Los Angeles Center
Fri 07:44:41 PM 34.9592 -119.6839 131° Southeast 452 520 23,800 -2,352 Descending Los Angeles Center
Fri 07:45:43 PM 34.8783 -119.5744 132° Southeast 435 501 21,600 -2,129 Descending Los Angeles Center
Fri 07:46:45 PM 34.8000 -119.4692 132° Southeast 421 484 19,400 -2,129 Descending Los Angeles Center
Fri 07:47:47 PM 34.7228 -119.3683 133° Southeast 408 470 17,200 -2,032 Descending Los Angeles Center
Fri 07:48:49 PM 34.6503 -119.2697 132° Southeast 394 453 15,200 -2,032 Descending Los Angeles Center
Fri 07:49:51 PM 34.5700 -119.1644 133° Southeast 376 433 13,000 -1,887 Descending Los Angeles Center
Fri 07:50:53 PM 34.5025 -119.0731 132° Southeast 366 421 11,300 -1,210 Descending Los Angeles Center
Fri 07:51:55 PM 34.4414 -118.9939 133° Southeast 319 367 10,500 -1,065 Descending Los Angeles Center
Fri 07:52:57 PM 34.3858 -118.9197 132° Southeast 300 345 9,100 -1,500 Descending Los Angeles Center
Fri 07:53:59 PM 34.3097 -118.8508 143° Southeast 287 330 7,400 -1,536 Descending Los Angeles Center
Fri 07:55:02 PM 34.2561 -118.7861 135° Southeast 299 344 5,900 -1,392 Descending Los Angeles Center
Fri 07:56:04 PM 34.2292 -118.7006 111° Southeast 279 321 4,500 -919 Descending Los Angeles Center
Fri 07:57:06 PM 34.2019 -118.6156 111° Southeast 274 315 4,000 -568 Descending Los Angeles Center
Fri 07:57:39 PM 34.2000 -118.5667 93° East 233 268 3,600 -667 Descending Southern California TRACON
Fri 07:58:45 PM 34.2000 -118.4833 90° East 207 238 2,900 -762 Descending Southern California TRACON
Fri 07:59:45 PM 34.2000 -118.4333 90° East 167 192 2,000 -947 Descending Southern California TRACON
Fri 08:00:39 PM 34.2000 -118.3833 90° East 130 150 1,100 -674 Descending Southern California TRACON
Fri 08:01:14 PM 34.1992 -118.3664 93° East 164 189 1,000 -171 Descending Los Angeles Center
Fri 08:03:00 PM 34.2000 -118.3500 140° Southeast  Level FlightAware Approximate

Login

Don't have an account? Register now (free) for customized features, flight alerts, and more!